Delta Virtual Airport Information Service

Bahrain International Airport

ICAO: OBBI Country: Bahrain
Latitude: 26.2708 Longitude: 50.6336
Latest Arrival : DAC8318 (OMDB-OBBI) Latest Departure : UAE840 (OBBI-OMDB)


WX CaptureLIVE
Data provided by noaa.gov | Fetched at 07:23:54

METAR : OBBI 061300Z 33022KT CAVOK 21/10 Q1017 NOSIG

TAF : OBBI 061100Z 0612/0718 32017KT CAVOK= OKBK 061045Z 0612/0718 34010G22KT 7000 NSC TEMPO 0612/0618 3000 BLDU


Runway Data for OBBI
Data provided by openaviationdata.com

Runway ID Mag Var Hdg Length Elevation Surface ILS Freq ILS Id ILS Slope
12L 2 120° 12976 ft 6 ft Asphalt 111.5 IBIB 3
12R 2 120° 8301 ft 6 ft Asphalt -- -- --
30L 2 300° 8301 ft 6 ft Asphalt -- -- --
30R 2 300° 12976 ft 6 ft Asphalt 110.3 IBIA 3

Bahrain International Airport, Bahrain
Use only for reference purposes



Not for navigational purposes.